createdAt,value
2023-03-16T00:02:23.825Z,1.40
2023-03-16T00:07:24.999Z,1.50
2023-03-16T00:12:30.074Z,1.50
2023-03-16T00:17:28.184Z,1.80
2023-03-16T00:22:27.385Z,1.40
2023-03-16T00:27:29.671Z,2.00
2023-03-16T00:32:28.921Z,2.10
2023-03-16T00:37:31.143Z,1.90
2023-03-16T00:42:30.313Z,1.90
2023-03-16T00:47:31.606Z,1.90
2023-03-16T00:52:32.795Z,1.80
2023-03-16T00:57:34.904Z,0.80
2023-03-16T01:02:34.020Z,0.50
2023-03-16T01:07:36.205Z,0.40
2023-03-16T01:12:36.376Z,0.50
2023-03-16T01:17:35.551Z,0.60
2023-03-16T01:22:36.662Z,0.50
2023-03-16T01:27:37.866Z,0.70
2023-03-16T01:32:39.068Z,0.60
2023-03-16T01:37:40.220Z,0.50
2023-03-16T01:42:41.399Z,0.70
2023-03-16T01:47:41.831Z,0.90
2023-03-16T01:52:43.007Z,1.00
2023-03-16T01:57:44.154Z,1.00
2023-03-16T02:02:45.616Z,0.80
2023-03-16T02:07:44.977Z,1.50
2023-03-16T02:12:46.173Z,1.60
2023-03-16T02:17:47.356Z,1.00
2023-03-16T02:22:48.507Z,1.00
2023-03-16T02:27:49.736Z,1.00
2023-03-16T02:32:50.919Z,0.90
2023-03-16T02:37:52.159Z,0.90
2023-03-16T02:42:53.320Z,1.10
2023-03-16T02:47:54.599Z,0.90
2023-03-16T02:52:55.730Z,0.90
2023-03-16T02:57:56.905Z,1.10
2023-03-16T03:03:00.076Z,1.30
2023-03-16T03:07:59.248Z,1.50
2023-03-16T03:13:00.428Z,4.80
2023-03-16T03:18:02.599Z,1.30
2023-03-16T03:23:01.754Z,0.70
2023-03-16T03:28:03.283Z,0.50
2023-03-16T03:33:02.538Z,0.80
2023-03-16T03:38:03.772Z,0.90
2023-03-16T03:43:05.898Z,0.60
2023-03-16T03:48:06.057Z,0.50
2023-03-16T03:53:05.209Z,0.40
2023-03-16T03:58:06.342Z,0.50
2023-03-16T04:03:07.573Z,0.50
2023-03-16T04:08:08.846Z,0.60
2023-03-16T04:13:10.074Z,0.50
2023-03-16T04:18:11.343Z,0.40
2023-03-16T04:23:12.489Z,0.50
2023-03-16T04:28:13.642Z,0.40
2023-03-16T04:33:14.803Z,0.60
2023-03-16T04:38:15.955Z,0.40
2023-03-16T04:43:17.096Z,0.40
2023-03-16T04:48:18.262Z,0.60
2023-03-16T04:53:19.455Z,0.50
2023-03-16T04:58:20.602Z,0.40
2023-03-16T05:03:21.790Z,0.80
2023-03-16T05:08:23.106Z,0.70
2023-03-16T05:13:28.134Z,0.70
2023-03-16T05:18:26.280Z,0.80
2023-03-16T05:23:25.454Z,1.10
2023-03-16T05:28:26.637Z,0.80
2023-03-16T05:33:27.811Z,1.00
2023-03-16T05:38:29.016Z,0.70
2023-03-16T05:43:30.184Z,0.50
2023-03-16T05:48:31.353Z,0.50
2023-03-16T05:53:32.539Z,0.60
2023-03-16T05:58:34.625Z,0.60
2023-03-16T06:03:34.874Z,0.60
2023-03-16T06:08:34.437Z,0.50
2023-03-16T06:13:33.629Z,0.60
2023-03-16T06:18:34.843Z,0.60
2023-03-16T06:23:35.990Z,0.50
2023-03-16T06:28:38.152Z,0.60
2023-03-16T06:33:37.341Z,0.80
2023-03-16T06:38:38.552Z,0.50
2023-03-16T06:43:39.671Z,0.60
2023-03-16T06:48:40.844Z,0.70
2023-03-16T06:53:42.018Z,0.80
2023-03-16T06:58:44.195Z,0.50
2023-03-16T07:03:43.417Z,0.50
2023-03-16T07:08:44.682Z,0.60
2023-03-16T07:13:46.850Z,0.60
2023-03-16T07:18:45.973Z,0.70
2023-03-16T07:23:47.145Z,0.60
2023-03-16T07:28:48.269Z,1.00
2023-03-16T07:33:49.412Z,0.70
2023-03-16T07:38:50.565Z,0.50
2023-03-16T07:43:51.717Z,0.60
2023-03-16T07:48:52.873Z,0.80
2023-03-16T07:53:55.134Z,0.70
2023-03-16T07:58:54.263Z,0.80
2023-03-16T08:03:55.470Z,0.60
2023-03-16T08:08:57.669Z,0.60
2023-03-16T08:13:57.837Z,0.90
2023-03-16T08:18:56.936Z,0.90
2023-03-16T08:23:58.094Z,0.80
2023-03-16T08:28:59.285Z,0.70
2023-03-16T08:34:01.425Z,0.50
2023-03-16T08:39:06.841Z,0.50
2023-03-16T08:44:01.547Z,0.60
2023-03-16T08:49:00.671Z,0.60
2023-03-16T08:54:02.816Z,0.60
2023-03-16T08:59:01.925Z,0.70
2023-03-16T09:04:04.108Z,0.40
2023-03-16T09:09:03.219Z,0.70
2023-03-16T09:14:04.373Z,0.40
2023-03-16T09:19:06.513Z,0.50
2023-03-16T09:24:07.665Z,0.40
2023-03-16T09:29:06.799Z,0.50
2023-03-16T09:34:07.905Z,0.60
2023-03-16T09:39:09.024Z,0.40
2023-03-16T09:44:11.221Z,0.40
2023-03-16T09:49:10.326Z,0.20
2023-03-16T09:54:12.466Z,0.40
2023-03-16T09:59:11.626Z,0.40
2023-03-16T10:04:13.845Z,0.30
2023-03-16T10:09:13.008Z,0.40
2023-03-16T10:14:14.189Z,0.60
2023-03-16T10:19:15.342Z,0.60
2023-03-16T10:24:16.465Z,0.50
2023-03-16T10:29:18.589Z,0.20
2023-03-16T10:34:18.712Z,0.30
2023-03-16T10:39:19.099Z,0.70
2023-03-16T10:44:19.219Z,0.80
2023-03-16T10:49:18.340Z,0.30
2023-03-16T10:54:20.477Z,0.40
2023-03-16T10:59:20.621Z,0.40
2023-03-16T11:04:20.771Z,0.40
2023-03-16T11:09:18.949Z,0.70
2023-03-16T11:14:21.072Z,0.50
2023-03-16T11:19:20.217Z,0.30
2023-03-16T11:24:21.349Z,0.30
2023-03-16T11:29:21.529Z,0.40
2023-03-16T11:34:22.656Z,0.40
2023-03-16T11:39:23.796Z,0.20
2023-03-16T11:44:24.894Z,0.40
2023-03-16T11:49:27.056Z,0.30
2023-03-16T11:54:27.205Z,0.40
2023-03-16T11:59:27.350Z,0.40
2023-03-16T12:04:26.463Z,0.40
2023-03-16T12:09:27.610Z,0.50
2023-03-16T12:14:27.754Z,1.50
2023-03-16T12:19:28.875Z,0.60
2023-03-16T12:24:29.981Z,0.30
2023-03-16T12:29:32.862Z,0.60
2023-03-16T12:34:32.017Z,0.50
2023-03-16T12:39:33.163Z,0.70
2023-03-16T12:44:34.319Z,0.70
2023-03-16T12:49:35.444Z,0.90
2023-03-16T12:54:37.554Z,0.50
2023-03-16T12:59:37.718Z,0.50
2023-03-16T13:04:36.893Z,0.50
2023-03-16T13:09:38.040Z,0.50
2023-03-16T13:14:40.153Z,0.50
2023-03-16T13:19:40.352Z,0.50
2023-03-16T13:24:40.495Z,0.80
2023-03-16T13:29:39.693Z,0.60
2023-03-16T13:34:40.822Z,0.90
2023-03-16T13:39:41.979Z,0.80
2023-03-16T13:44:43.205Z,0.60
2023-03-16T13:49:44.316Z,0.70
2023-03-16T13:54:46.481Z,0.70
2023-03-16T13:59:45.690Z,0.60
2023-03-16T14:04:47.799Z,0.50
2023-03-16T14:09:46.994Z,0.60
2023-03-16T14:14:48.156Z,0.70
2023-03-16T14:19:49.304Z,0.80
2023-03-16T14:24:50.475Z,0.60
2023-03-16T14:29:51.712Z,0.60
2023-03-16T14:34:52.829Z,0.60
2023-03-16T14:39:54.034Z,5.70
2023-03-16T14:44:55.177Z,0.60
2023-03-16T14:49:56.313Z,0.70
2023-03-16T14:54:57.467Z,0.70
2023-03-16T14:59:58.700Z,0.90
2023-03-16T15:04:59.809Z,0.80
2023-03-16T15:10:01.933Z,1.10
2023-03-16T15:15:01.128Z,0.90
2023-03-16T15:20:02.281Z,1.20
2023-03-16T15:25:04.458Z,1.10
2023-03-16T15:30:02.646Z,1.00
2023-03-16T15:35:04.768Z,1.50
2023-03-16T15:40:04.912Z,1.10
2023-03-16T15:45:04.140Z,0.80
2023-03-16T15:50:06.272Z,1.30
2023-03-16T15:55:05.749Z,0.90
2023-03-16T16:00:06.088Z,1.20
2023-03-16T16:05:06.374Z,1.30
2023-03-16T16:10:05.570Z,1.10
2023-03-16T16:15:06.733Z,1.10
2023-03-16T16:20:07.878Z,1.70
2023-03-16T16:25:08.996Z,1.30
2023-03-16T16:30:10.199Z,1.30
2023-03-16T16:35:11.326Z,2.10
2023-03-16T16:40:12.509Z,1.60
2023-03-16T16:45:14.670Z,1.90
2023-03-16T16:50:14.790Z,1.70
2023-03-16T16:55:14.940Z,1.60
2023-03-16T17:00:14.248Z,1.70
2023-03-16T17:05:15.694Z,1.40
2023-03-16T17:10:18.060Z,1.40
2023-03-16T17:15:17.286Z,1.40
2023-03-16T17:20:19.289Z,1.40
2023-03-16T17:25:19.530Z,1.50
2023-03-16T17:30:19.759Z,2.10
2023-03-16T17:35:21.044Z,2.00
2023-03-16T17:40:21.498Z,1.50
2023-03-16T17:45:21.011Z,1.50
2023-03-16T17:50:22.632Z,2.40
2023-03-16T17:55:19.830Z,2.70
2023-03-16T18:00:23.018Z,2.00
2023-03-16T18:05:23.623Z,2.40
2023-03-16T18:10:23.055Z,2.30
2023-03-16T18:15:24.533Z,2.20
2023-03-16T18:20:23.954Z,1.50
2023-03-16T18:25:25.497Z,1.90
2023-03-16T18:30:25.013Z,1.60
2023-03-16T18:35:25.042Z,1.80
2023-03-16T18:40:25.473Z,2.60
2023-03-16T18:45:25.001Z,9.20
2023-03-16T18:50:25.510Z,4.50
2023-03-16T18:55:26.070Z,2.70
2023-03-16T19:00:25.753Z,3.10
2023-03-16T19:05:25.348Z,2.40
2023-03-16T19:10:26.836Z,4.70
2023-03-16T19:15:26.344Z,2.80
2023-03-16T19:20:23.642Z,3.80
2023-03-16T19:25:26.181Z,3.00
2023-03-16T19:30:26.683Z,2.60
2023-03-16T19:35:40.153Z,2.50
2023-03-16T19:40:26.549Z,3.20
2023-03-16T19:45:25.836Z,1.60
2023-03-16T19:50:27.427Z,1.50
2023-03-16T19:55:27.182Z,1.50
2023-03-16T20:00:27.745Z,2.50
2023-03-16T20:05:26.005Z,4.40
2023-03-16T20:10:28.496Z,3.40
2023-03-16T20:15:28.259Z,4.60
2023-03-16T20:20:27.973Z,2.10
2023-03-16T20:25:28.618Z,1.80
2023-03-16T20:30:28.396Z,1.50
2023-03-16T20:35:28.916Z,3.00
2023-03-16T20:40:28.790Z,1.30
2023-03-16T20:45:29.033Z,1.30
2023-03-16T20:50:28.734Z,1.90
2023-03-16T20:55:28.459Z,1.80
2023-03-16T21:00:27.874Z,1.20
2023-03-16T21:05:29.550Z,0.90
2023-03-16T21:10:29.193Z,1.20
2023-03-16T21:15:29.006Z,4.10
2023-03-16T21:20:28.379Z,2.60
2023-03-16T21:25:29.810Z,1.60
2023-03-16T21:30:29.320Z,1.60
2023-03-16T21:35:30.895Z,1.00
2023-03-16T21:40:30.561Z,1.00
2023-03-16T21:45:30.136Z,2.80
2023-03-16T21:50:29.680Z,1.10
2023-03-16T21:55:31.118Z,1.20
2023-03-16T22:00:32.348Z,0.60
2023-03-16T22:05:34.459Z,2.20
2023-03-16T22:10:33.563Z,1.70
2023-03-16T22:15:34.860Z,0.80
2023-03-16T22:20:35.011Z,0.90
2023-03-16T22:25:36.242Z,1.70
2023-03-16T22:30:37.439Z,1.10
2023-03-16T22:35:37.605Z,0.80
2023-03-16T22:40:38.764Z,0.80
2023-03-16T22:45:39.991Z,0.80
2023-03-16T22:50:41.157Z,0.90
2023-03-16T22:55:42.312Z,1.10
2023-03-16T23:00:43.541Z,1.70
2023-03-16T23:05:44.662Z,0.60
2023-03-16T23:10:45.896Z,0.60
2023-03-16T23:15:47.068Z,0.60
2023-03-16T23:20:48.326Z,0.60
2023-03-16T23:25:50.435Z,1.00
2023-03-16T23:30:49.657Z,2.50
2023-03-16T23:35:50.842Z,1.70
2023-03-16T23:40:52.083Z,1.90
2023-03-16T23:45:52.230Z,0.80
2023-03-16T23:50:53.441Z,0.60
2023-03-16T23:55:54.587Z,0.70
